sensor_id;sensor_type;location;lat;lon;timestamp;pressure;altitude;pressure_sealevel;temperature;humidity
34034;BME280;63481;52.588;22.472;2024-02-28T00:03:26;100182.83;;;10.54;100.00
34034;BME280;63481;52.588;22.472;2024-02-28T00:08:28;100179.89;;;10.62;100.00
34034;BME280;63481;52.588;22.472;2024-02-28T00:13:29;100176.52;;;10.63;100.00
34034;BME280;63481;52.588;22.472;2024-02-28T00:18:31;100184.75;;;10.51;100.00
34034;BME280;63481;52.588;22.472;2024-02-28T00:23:33;100185.05;;;10.42;100.00
34034;BME280;63481;52.588;22.472;2024-02-28T00:28:35;100183.34;;;10.27;100.00
34034;BME280;63481;52.588;22.472;2024-02-28T00:33:38;100184.88;;;10.43;100.00
34034;BME280;63481;52.588;22.472;2024-02-28T00:38:39;100188.30;;;10.24;100.00
34034;BME280;63481;52.588;22.472;2024-02-28T00:43:41;100186.61;;;10.33;100.00
34034;BME280;63481;52.588;22.472;2024-02-28T00:48:43;100187.43;;;10.32;100.00
34034;BME280;63481;52.588;22.472;2024-02-28T00:53:45;100181.98;;;10.27;100.00
34034;BME280;63481;52.588;22.472;2024-02-28T00:58:47;100180.88;;;10.14;100.00
34034;BME280;63481;52.588;22.472;2024-02-28T01:03:48;100180.02;;;10.00;100.00
34034;BME280;63481;52.588;22.472;2024-02-28T01:08:50;100165.07;;;10.12;100.00
34034;BME280;63481;52.588;22.472;2024-02-28T01:13:52;100164.83;;;10.16;100.00
34034;BME280;63481;52.588;22.472;2024-02-28T01:18:54;100169.38;;;10.07;100.00
34034;BME280;63481;52.588;22.472;2024-02-28T01:23:56;100164.64;;;9.85;100.00
34034;BME280;63481;52.588;22.472;2024-02-28T01:28:57;100165.61;;;9.81;100.00
34034;BME280;63481;52.588;22.472;2024-02-28T01:33:59;100168.98;;;9.80;100.00
34034;BME280;63481;52.588;22.472;2024-02-28T01:39:01;100161.86;;;9.94;100.00
34034;BME280;63481;52.588;22.472;2024-02-28T01:44:03;100160.55;;;9.95;100.00
34034;BME280;63481;52.588;22.472;2024-02-28T01:49:05;100157.48;;;9.95;100.00
34034;BME280;63481;52.588;22.472;2024-02-28T01:54:07;100159.64;;;9.84;100.00
34034;BME280;63481;52.588;22.472;2024-02-28T01:59:13;100161.34;;;9.70;100.00
34034;BME280;63481;52.588;22.472;2024-02-28T02:04:14;100167.77;;;9.67;100.00
34034;BME280;63481;52.588;22.472;2024-02-28T02:09:16;100167.48;;;9.75;100.00
34034;BME280;63481;52.588;22.472;2024-02-28T02:14:18;100177.92;;;9.68;100.00
34034;BME280;63481;52.588;22.472;2024-02-28T02:19:20;100181.37;;;9.67;100.00
34034;BME280;63481;52.588;22.472;2024-02-28T02:24:24;100178.61;;;9.62;100.00
34034;BME280;63481;52.588;22.472;2024-02-28T02:29:26;100175.41;;;9.59;100.00
34034;BME280;63481;52.588;22.472;2024-02-28T02:34:30;100173.27;;;9.52;100.00
34034;BME280;63481;52.588;22.472;2024-02-28T02:39:32;100179.14;;;9.44;100.00
34034;BME280;63481;52.588;22.472;2024-02-28T02:44:34;100174.27;;;9.40;100.00
34034;BME280;63481;52.588;22.472;2024-02-28T02:49:36;100175.39;;;9.31;100.00
34034;BME280;63481;52.588;22.472;2024-02-28T02:54:38;100176.77;;;9.20;100.00
34034;BME280;63481;52.588;22.472;2024-02-28T02:59:39;100176.23;;;8.98;100.00
34034;BME280;63481;52.588;22.472;2024-02-28T03:04:41;100176.86;;;8.83;100.00
34034;BME280;63481;52.588;22.472;2024-02-28T03:09:43;100182.48;;;8.74;100.00
34034;BME280;63481;52.588;22.472;2024-02-28T03:14:45;100183.38;;;8.60;100.00
34034;BME280;63481;52.588;22.472;2024-02-28T03:19:46;100191.35;;;8.48;100.00
34034;BME280;63481;52.588;22.472;2024-02-28T03:24:48;100196.37;;;8.45;100.00
34034;BME280;63481;52.588;22.472;2024-02-28T03:29:50;100203.36;;;8.51;100.00
34034;BME280;63481;52.588;22.472;2024-02-28T03:34:52;100207.46;;;8.42;100.00
34034;BME280;63481;52.588;22.472;2024-02-28T03:39:54;100207.72;;;8.25;100.00
34034;BME280;63481;52.588;22.472;2024-02-28T03:44:56;100212.81;;;8.25;100.00
34034;BME280;63481;52.588;22.472;2024-02-28T03:49:57;100219.63;;;8.09;100.00
34034;BME280;63481;52.588;22.472;2024-02-28T03:55:01;100219.99;;;7.92;100.00
34034;BME280;63481;52.588;22.472;2024-02-28T04:00:03;100221.83;;;7.83;100.00
34034;BME280;63481;52.588;22.472;2024-02-28T04:05:13;100223.56;;;7.73;100.00
34034;BME280;63481;52.588;22.472;2024-02-28T04:10:15;100225.81;;;7.62;100.00
34034;BME280;63481;52.588;22.472;2024-02-28T04:15:17;100227.48;;;7.54;100.00
34034;BME280;63481;52.588;22.472;2024-02-28T04:20:19;100231.06;;;7.54;100.00
34034;BME280;63481;52.588;22.472;2024-02-28T04:25:20;100229.57;;;7.45;100.00
34034;BME280;63481;52.588;22.472;2024-02-28T04:30:22;100232.77;;;7.60;100.00
34034;BME280;63481;52.588;22.472;2024-02-28T04:35:24;100224.95;;;7.77;100.00
34034;BME280;63481;52.588;22.472;2024-02-28T04:40:26;100217.55;;;7.72;100.00
34034;BME280;63481;52.588;22.472;2024-02-28T04:45:28;100200.61;;;7.77;100.00
34034;BME280;63481;52.588;22.472;2024-02-28T04:50:30;100178.48;;;7.92;100.00
34034;BME280;63481;52.588;22.472;2024-02-28T04:55:32;100169.86;;;8.05;100.00
34034;BME280;63481;52.588;22.472;2024-02-28T05:00:33;100174.76;;;8.10;100.00
34034;BME280;63481;52.588;22.472;2024-02-28T05:05:35;100189.44;;;7.96;100.00
34034;BME280;63481;52.588;22.472;2024-02-28T05:10:37;100195.55;;;7.95;100.00
34034;BME280;63481;52.588;22.472;2024-02-28T05:15:40;100200.08;;;7.82;100.00
34034;BME280;63481;52.588;22.472;2024-02-28T05:20:42;100238.04;;;7.68;100.00
34034;BME280;63481;52.588;22.472;2024-02-28T05:25:46;100244.42;;;7.48;100.00
34034;BME280;63481;52.588;22.472;2024-02-28T05:30:48;100243.48;;;7.51;100.00
34034;BME280;63481;52.588;22.472;2024-02-28T05:35:50;100247.34;;;7.33;100.00
34034;BME280;63481;52.588;22.472;2024-02-28T05:40:51;100252.89;;;7.10;100.00
34034;BME280;63481;52.588;22.472;2024-02-28T05:45:53;100256.11;;;7.07;100.00
34034;BME280;63481;52.588;22.472;2024-02-28T05:50:56;100254.95;;;6.99;100.00
34034;BME280;63481;52.588;22.472;2024-02-28T05:55:58;100256.36;;;6.98;100.00
34034;BME280;63481;52.588;22.472;2024-02-28T06:01:00;100256.72;;;7.06;100.00
34034;BME280;63481;52.588;22.472;2024-02-28T06:06:01;100251.95;;;7.27;100.00
34034;BME280;63481;52.588;22.472;2024-02-28T06:11:07;100249.66;;;7.34;100.00
34034;BME280;63481;52.588;22.472;2024-02-28T06:16:15;100252.56;;;7.39;100.00
34034;BME280;63481;52.588;22.472;2024-02-28T06:21:17;100253.59;;;7.37;100.00
34034;BME280;63481;52.588;22.472;2024-02-28T06:26:19;100246.33;;;7.57;100.00
34034;BME280;63481;52.588;22.472;2024-02-28T06:31:21;100247.38;;;7.74;100.00
34034;BME280;63481;52.588;22.472;2024-02-28T06:36:23;100251.73;;;7.76;100.00
34034;BME280;63481;52.588;22.472;2024-02-28T06:41:25;100252.30;;;7.80;100.00
34034;BME280;63481;52.588;22.472;2024-02-28T06:46:26;100262.99;;;7.91;100.00
34034;BME280;63481;52.588;22.472;2024-02-28T06:51:28;100279.10;;;7.99;100.00
34034;BME280;63481;52.588;22.472;2024-02-28T06:56:30;100283.63;;;8.20;100.00
34034;BME280;63481;52.588;22.472;2024-02-28T07:01:32;100289.33;;;8.28;100.00
34034;BME280;63481;52.588;22.472;2024-02-28T07:06:34;100285.69;;;8.32;100.00
34034;BME280;63481;52.588;22.472;2024-02-28T07:11:37;100287.77;;;8.31;100.00
34034;BME280;63481;52.588;22.472;2024-02-28T07:16:39;100286.73;;;8.33;100.00
34034;BME280;63481;52.588;22.472;2024-02-28T07:21:41;100295.59;;;8.46;100.00
34034;BME280;63481;52.588;22.472;2024-02-28T07:26:43;100304.43;;;8.52;100.00
34034;BME280;63481;52.588;22.472;2024-02-28T07:31:45;100309.95;;;8.59;100.00
34034;BME280;63481;52.588;22.472;2024-02-28T07:36:47;100307.45;;;8.80;100.00
34034;BME280;63481;52.588;22.472;2024-02-28T07:41:48;100309.09;;;8.92;100.00
34034;BME280;63481;52.588;22.472;2024-02-28T07:46:52;100314.61;;;8.97;100.00
34034;BME280;63481;52.588;22.472;2024-02-28T07:51:53;100314.38;;;8.85;100.00
34034;BME280;63481;52.588;22.472;2024-02-28T07:56:56;100320.76;;;9.09;100.00
34034;BME280;63481;52.588;22.472;2024-02-28T08:01:58;100317.44;;;9.44;100.00
34034;BME280;63481;52.588;22.472;2024-02-28T08:07:00;100314.24;;;9.64;100.00
34034;BME280;63481;52.588;22.472;2024-02-28T08:12:02;100307.27;;;9.90;100.00
34034;BME280;63481;52.588;22.472;2024-02-28T08:17:04;100310.10;;;10.10;100.00
34034;BME280;63481;52.588;22.472;2024-02-28T08:22:06;100312.79;;;10.27;100.00
34034;BME280;63481;52.588;22.472;2024-02-28T08:27:08;100311.21;;;10.37;100.00
34034;BME280;63481;52.588;22.472;2024-02-28T08:32:10;100308.89;;;10.55;100.00
34034;BME280;63481;52.588;22.472;2024-02-28T08:37:13;100307.11;;;10.90;100.00
34034;BME280;63481;52.588;22.472;2024-02-28T08:42:14;100301.66;;;11.20;100.00
34034;BME280;63481;52.588;22.472;2024-02-28T08:47:16;100302.23;;;11.57;100.00
34034;BME280;63481;52.588;22.472;2024-02-28T08:52:18;100307.60;;;11.86;100.00
34034;BME280;63481;52.588;22.472;2024-02-28T08:57:20;100297.94;;;12.09;100.00
34034;BME280;63481;52.588;22.472;2024-02-28T09:02:23;100294.39;;;12.27;100.00
34034;BME280;63481;52.588;22.472;2024-02-28T09:07:25;100294.82;;;12.50;100.00
34034;BME280;63481;52.588;22.472;2024-02-28T09:12:27;100291.50;;;12.71;100.00
34034;BME280;63481;52.588;22.472;2024-02-28T09:17:28;100291.11;;;12.87;100.00
34034;BME280;63481;52.588;22.472;2024-02-28T09:22:30;100292.48;;;13.00;100.00
34034;BME280;63481;52.588;22.472;2024-02-28T09:27:32;100296.04;;;13.24;100.00
34034;BME280;63481;52.588;22.472;2024-02-28T09:32:34;100287.16;;;13.52;100.00
34034;BME280;63481;52.588;22.472;2024-02-28T09:37:37;100284.69;;;13.64;100.00
34034;BME280;63481;52.588;22.472;2024-02-28T09:42:38;100283.80;;;13.56;100.00
34034;BME280;63481;52.588;22.472;2024-02-28T09:47:40;100278.15;;;13.73;100.00
34034;BME280;63481;52.588;22.472;2024-02-28T09:52:42;100280.29;;;14.09;100.00
34034;BME280;63481;52.588;22.472;2024-02-28T09:57:47;100289.98;;;14.27;100.00
34034;BME280;63481;52.588;22.472;2024-02-28T10:02:49;100290.31;;;13.92;100.00
34034;BME280;63481;52.588;22.472;2024-02-28T10:07:52;100292.09;;;13.86;100.00
34034;BME280;63481;52.588;22.472;2024-02-28T10:12:55;100290.09;;;14.03;100.00
34034;BME280;63481;52.588;22.472;2024-02-28T10:17:57;100291.16;;;14.17;100.00
34034;BME280;63481;52.588;22.472;2024-02-28T10:22:59;100290.71;;;14.40;100.00
34034;BME280;63481;52.588;22.472;2024-02-28T10:28:06;100294.04;;;14.70;100.00
34034;BME280;63481;52.588;22.472;2024-02-28T10:33:12;100295.47;;;15.10;100.00
34034;BME280;63481;52.588;22.472;2024-02-28T10:38:15;100303.14;;;15.41;100.00
34034;BME280;63481;52.588;22.472;2024-02-28T10:43:17;100300.73;;;15.22;100.00
34034;BME280;63481;52.588;22.472;2024-02-28T10:48:19;100299.41;;;14.77;100.00
34034;BME280;63481;52.588;22.472;2024-02-28T10:53:30;100296.27;;;14.45;100.00
34034;BME280;63481;52.588;22.472;2024-02-28T10:58:35;100294.02;;;14.56;100.00
34034;BME280;63481;52.588;22.472;2024-02-28T11:03:40;100292.17;;;14.68;100.00
34034;BME280;63481;52.588;22.472;2024-02-28T11:08:45;100298.41;;;14.55;100.00
34034;BME280;63481;52.588;22.472;2024-02-28T11:13:54;100303.02;;;14.19;100.00
34034;BME280;63481;52.588;22.472;2024-02-28T11:18:56;100309.59;;;13.71;100.00
34034;BME280;63481;52.588;22.472;2024-02-28T11:23:59;100307.67;;;13.41;100.00
34034;BME280;63481;52.588;22.472;2024-02-28T11:29:01;100312.80;;;13.24;100.00
34034;BME280;63481;52.588;22.472;2024-02-28T11:34:03;100309.31;;;13.10;100.00
34034;BME280;63481;52.588;22.472;2024-02-28T11:39:05;100312.49;;;12.99;100.00
34034;BME280;63481;52.588;22.472;2024-02-28T11:44:09;100313.10;;;12.95;100.00
34034;BME280;63481;52.588;22.472;2024-02-28T11:49:12;100314.38;;;12.91;100.00
34034;BME280;63481;52.588;22.472;2024-02-28T11:54:14;100320.14;;;12.72;100.00
34034;BME280;63481;52.588;22.472;2024-02-28T11:59:16;100320.24;;;12.63;100.00
34034;BME280;63481;52.588;22.472;2024-02-28T12:04:17;100320.04;;;12.63;100.00
34034;BME280;63481;52.588;22.472;2024-02-28T12:09:19;100320.38;;;12.57;100.00
34034;BME280;63481;52.588;22.472;2024-02-28T12:14:21;100321.77;;;12.52;100.00
34034;BME280;63481;52.588;22.472;2024-02-28T12:19:24;100321.07;;;12.57;100.00
34034;BME280;63481;52.588;22.472;2024-02-28T12:24:26;100324.05;;;12.45;100.00
34034;BME280;63481;52.588;22.472;2024-02-28T12:29:28;100323.02;;;12.50;100.00
34034;BME280;63481;52.588;22.472;2024-02-28T12:34:29;100320.30;;;12.50;100.00
34034;BME280;63481;52.588;22.472;2024-02-28T12:39:31;100321.73;;;12.46;100.00
34034;BME280;63481;52.588;22.472;2024-02-28T12:44:35;100325.97;;;12.40;100.00
34034;BME280;63481;52.588;22.472;2024-02-28T12:49:38;100323.64;;;12.25;100.00
34034;BME280;63481;52.588;22.472;2024-02-28T12:54:39;100323.17;;;12.34;100.00
34034;BME280;63481;52.588;22.472;2024-02-28T12:59:41;100324.66;;;12.43;100.00
34034;BME280;63481;52.588;22.472;2024-02-28T13:04:43;100319.89;;;12.67;100.00
34034;BME280;63481;52.588;22.472;2024-02-28T13:09:45;100318.69;;;12.57;100.00
34034;BME280;63481;52.588;22.472;2024-02-28T13:14:46;100315.73;;;12.66;100.00
34034;BME280;63481;52.588;22.472;2024-02-28T13:19:48;100314.59;;;12.60;100.00
34034;BME280;63481;52.588;22.472;2024-02-28T13:24:50;100310.15;;;12.75;100.00
34034;BME280;63481;52.588;22.472;2024-02-28T13:29:52;100305.64;;;12.57;100.00
34034;BME280;63481;52.588;22.472;2024-02-28T13:34:54;100307.67;;;12.45;100.00
34034;BME280;63481;52.588;22.472;2024-02-28T13:39:55;100305.91;;;12.43;100.00
34034;BME280;63481;52.588;22.472;2024-02-28T13:44:58;100309.02;;;12.34;100.00
34034;BME280;63481;52.588;22.472;2024-02-28T13:50:00;100313.20;;;12.25;100.00
34034;BME280;63481;52.588;22.472;2024-02-28T13:55:02;100314.46;;;12.43;100.00
34034;BME280;63481;52.588;22.472;2024-02-28T14:00:05;100318.52;;;12.35;100.00
34034;BME280;63481;52.588;22.472;2024-02-28T14:05:12;100322.67;;;12.33;100.00
34034;BME280;63481;52.588;22.472;2024-02-28T14:10:14;100323.06;;;12.26;100.00
34034;BME280;63481;52.588;22.472;2024-02-28T14:15:18;100325.96;;;12.20;100.00
34034;BME280;63481;52.588;22.472;2024-02-28T14:20:19;100327.66;;;12.25;100.00
34034;BME280;63481;52.588;22.472;2024-02-28T14:25:21;100325.63;;;12.29;100.00
34034;BME280;63481;52.588;22.472;2024-02-28T14:30:23;100326.85;;;12.30;100.00
34034;BME280;63481;52.588;22.472;2024-02-28T14:35:25;100330.70;;;12.41;100.00
34034;BME280;63481;52.588;22.472;2024-02-28T14:40:27;100337.26;;;12.58;100.00
34034;BME280;63481;52.588;22.472;2024-02-28T14:45:29;100340.09;;;12.39;100.00
34034;BME280;63481;52.588;22.472;2024-02-28T14:50:33;100340.67;;;12.37;100.00
34034;BME280;63481;52.588;22.472;2024-02-28T14:55:35;100342.25;;;12.29;100.00
34034;BME280;63481;52.588;22.472;2024-02-28T15:00:37;100345.05;;;12.23;100.00
34034;BME280;63481;52.588;22.472;2024-02-28T15:05:39;100347.56;;;12.15;100.00
34034;BME280;63481;52.588;22.472;2024-02-28T15:10:42;100351.23;;;12.05;100.00
34034;BME280;63481;52.588;22.472;2024-02-28T15:15:44;100358.88;;;12.05;100.00
34034;BME280;63481;52.588;22.472;2024-02-28T15:20:46;100364.79;;;11.98;100.00
34034;BME280;63481;52.588;22.472;2024-02-28T15:25:48;100372.15;;;11.86;100.00
34034;BME280;63481;52.588;22.472;2024-02-28T15:30:50;100383.23;;;11.53;100.00
34034;BME280;63481;52.588;22.472;2024-02-28T15:35:52;100393.84;;;11.19;100.00
34034;BME280;63481;52.588;22.472;2024-02-28T15:40:54;100395.04;;;10.93;100.00
34034;BME280;63481;52.588;22.472;2024-02-28T15:45:55;100402.50;;;10.83;100.00
34034;BME280;63481;52.588;22.472;2024-02-28T15:50:57;100405.89;;;10.71;100.00
34034;BME280;63481;52.588;22.472;2024-02-28T15:55:59;100407.27;;;10.58;100.00
34034;BME280;63481;52.588;22.472;2024-02-28T16:01:01;100419.10;;;10.45;100.00
34034;BME280;63481;52.588;22.472;2024-02-28T16:06:04;100424.11;;;10.35;100.00
34034;BME280;63481;52.588;22.472;2024-02-28T16:11:06;100433.73;;;10.20;100.00
34034;BME280;63481;52.588;22.472;2024-02-28T16:16:08;100439.31;;;10.12;100.00
34034;BME280;63481;52.588;22.472;2024-02-28T16:21:10;100442.19;;;9.99;100.00
34034;BME280;63481;52.588;22.472;2024-02-28T16:26:12;100452.04;;;9.96;100.00
34034;BME280;63481;52.588;22.472;2024-02-28T16:31:14;100457.61;;;9.75;100.00
34034;BME280;63481;52.588;22.472;2024-02-28T16:36:16;100464.20;;;9.68;100.00
34034;BME280;63481;52.588;22.472;2024-02-28T16:41:18;100473.69;;;9.52;100.00
34034;BME280;63481;52.588;22.472;2024-02-28T16:46:20;100484.29;;;9.39;100.00
34034;BME280;63481;52.588;22.472;2024-02-28T16:51:22;100490.32;;;9.32;100.00
34034;BME280;63481;52.588;22.472;2024-02-28T16:56:24;100496.89;;;9.24;100.00
34034;BME280;63481;52.588;22.472;2024-02-28T17:01:25;100512.39;;;9.18;100.00
34034;BME280;63481;52.588;22.472;2024-02-28T17:06:27;100519.16;;;9.12;100.00
34034;BME280;63481;52.588;22.472;2024-02-28T17:11:29;100519.39;;;9.06;100.00
34034;BME280;63481;52.588;22.472;2024-02-28T17:16:31;100529.29;;;8.97;100.00
34034;BME280;63481;52.588;22.472;2024-02-28T17:21:33;100526.00;;;8.91;100.00
34034;BME280;63481;52.588;22.472;2024-02-28T17:26:37;100518.73;;;8.86;100.00
34034;BME280;63481;52.588;22.472;2024-02-28T17:31:39;100522.42;;;8.75;100.00
34034;BME280;63481;52.588;22.472;2024-02-28T17:36:41;100527.04;;;8.75;100.00
34034;BME280;63481;52.588;22.472;2024-02-28T17:41:43;100531.27;;;8.73;100.00
34034;BME280;63481;52.588;22.472;2024-02-28T17:46:49;100531.50;;;8.71;100.00
34034;BME280;63481;52.588;22.472;2024-02-28T17:51:51;100542.42;;;8.71;100.00
34034;BME280;63481;52.588;22.472;2024-02-28T17:56:52;100550.74;;;8.80;100.00
34034;BME280;63481;52.588;22.472;2024-02-28T18:01:55;100550.77;;;8.79;100.00
34034;BME280;63481;52.588;22.472;2024-02-28T18:06:58;100550.20;;;8.75;100.00
34034;BME280;63481;52.588;22.472;2024-02-28T18:12:00;100552.36;;;8.75;100.00
34034;BME280;63481;52.588;22.472;2024-02-28T18:17:01;100554.75;;;8.70;100.00
34034;BME280;63481;52.588;22.472;2024-02-28T18:22:03;100560.63;;;8.71;100.00
34034;BME280;63481;52.588;22.472;2024-02-28T18:27:09;100566.70;;;8.69;100.00
34034;BME280;63481;52.588;22.472;2024-02-28T18:32:12;100572.30;;;8.65;100.00
34034;BME280;63481;52.588;22.472;2024-02-28T18:37:14;100572.60;;;8.64;100.00
34034;BME280;63481;52.588;22.472;2024-02-28T18:42:17;100570.69;;;8.64;100.00
34034;BME280;63481;52.588;22.472;2024-02-28T18:47:18;100572.04;;;8.62;100.00
34034;BME280;63481;52.588;22.472;2024-02-28T18:52:20;100580.04;;;8.47;100.00
34034;BME280;63481;52.588;22.472;2024-02-28T18:57:22;100580.91;;;8.43;100.00
34034;BME280;63481;52.588;22.472;2024-02-28T19:02:24;100587.77;;;8.42;100.00
34034;BME280;63481;52.588;22.472;2024-02-28T19:07:27;100588.45;;;8.34;100.00
34034;BME280;63481;52.588;22.472;2024-02-28T19:12:29;100589.13;;;8.27;100.00
34034;BME280;63481;52.588;22.472;2024-02-28T19:17:32;100590.55;;;8.18;100.00
34034;BME280;63481;52.588;22.472;2024-02-28T19:22:34;100597.63;;;8.15;100.00
34034;BME280;63481;52.588;22.472;2024-02-28T19:27:37;100599.61;;;8.14;100.00
34034;BME280;63481;52.588;22.472;2024-02-28T19:32:41;100604.50;;;8.16;100.00
34034;BME280;63481;52.588;22.472;2024-02-28T19:37:42;100607.06;;;8.11;100.00
34034;BME280;63481;52.588;22.472;2024-02-28T19:42:45;100609.14;;;8.13;100.00
34034;BME280;63481;52.588;22.472;2024-02-28T19:47:46;100613.38;;;8.11;100.00
34034;BME280;63481;52.588;22.472;2024-02-28T19:52:50;100609.98;;;8.14;100.00
34034;BME280;63481;52.588;22.472;2024-02-28T19:57:51;100618.29;;;8.14;100.00
34034;BME280;63481;52.588;22.472;2024-02-28T20:02:53;100625.22;;;8.19;100.00
34034;BME280;63481;52.588;22.472;2024-02-28T20:07:55;100627.44;;;8.20;100.00
34034;BME280;63481;52.588;22.472;2024-02-28T20:12:57;100632.54;;;8.11;100.00
34034;BME280;63481;52.588;22.472;2024-02-28T20:17:59;100637.69;;;8.08;100.00
34034;BME280;63481;52.588;22.472;2024-02-28T20:23:01;100645.42;;;8.04;100.00
34034;BME280;63481;52.588;22.472;2024-02-28T20:28:03;100647.79;;;7.96;100.00
34034;BME280;63481;52.588;22.472;2024-02-28T20:33:05;100652.41;;;7.91;100.00
34034;BME280;63481;52.588;22.472;2024-02-28T20:38:07;100652.50;;;7.89;100.00
34034;BME280;63481;52.588;22.472;2024-02-28T20:43:10;100656.25;;;7.89;100.00
34034;BME280;63481;52.588;22.472;2024-02-28T20:48:12;100657.97;;;7.92;100.00
34034;BME280;63481;52.588;22.472;2024-02-28T20:53:14;100657.67;;;7.89;100.00
34034;BME280;63481;52.588;22.472;2024-02-28T20:58:17;100666.52;;;7.90;100.00
34034;BME280;63481;52.588;22.472;2024-02-28T21:03:18;100683.45;;;7.89;100.00
34034;BME280;63481;52.588;22.472;2024-02-28T21:08:20;100693.70;;;7.93;100.00
34034;BME280;63481;52.588;22.472;2024-02-28T21:13:22;100697.77;;;7.86;100.00
34034;BME280;63481;52.588;22.472;2024-02-28T21:18:24;100706.48;;;7.82;100.00
34034;BME280;63481;52.588;22.472;2024-02-28T21:23:25;100706.14;;;7.78;100.00
34034;BME280;63481;52.588;22.472;2024-02-28T21:28:27;100712.02;;;7.72;100.00
34034;BME280;63481;52.588;22.472;2024-02-28T21:33:29;100715.52;;;7.72;100.00
34034;BME280;63481;52.588;22.472;2024-02-28T21:38:31;100715.70;;;7.69;100.00
34034;BME280;63481;52.588;22.472;2024-02-28T21:43:32;100715.84;;;7.66;100.00
34034;BME280;63481;52.588;22.472;2024-02-28T21:48:34;100719.23;;;7.60;100.00
34034;BME280;63481;52.588;22.472;2024-02-28T21:53:36;100716.47;;;7.56;100.00
34034;BME280;63481;52.588;22.472;2024-02-28T21:58:38;100724.21;;;7.55;100.00
34034;BME280;63481;52.588;22.472;2024-02-28T22:03:40;100730.61;;;7.57;100.00
34034;BME280;63481;52.588;22.472;2024-02-28T22:08:42;100724.89;;;7.60;100.00
34034;BME280;63481;52.588;22.472;2024-02-28T22:13:44;100736.68;;;7.64;100.00
34034;BME280;63481;52.588;22.472;2024-02-28T22:18:45;100750.20;;;7.71;100.00
34034;BME280;63481;52.588;22.472;2024-02-28T22:23:48;100760.19;;;7.76;100.00
34034;BME280;63481;52.588;22.472;2024-02-28T22:28:49;100768.44;;;7.77;100.00
34034;BME280;63481;52.588;22.472;2024-02-28T22:33:52;100763.55;;;7.56;100.00
34034;BME280;63481;52.588;22.472;2024-02-28T22:38:54;100769.13;;;7.42;100.00
34034;BME280;63481;52.588;22.472;2024-02-28T22:43:56;100780.23;;;7.36;100.00
34034;BME280;63481;52.588;22.472;2024-02-28T22:48:57;100784.08;;;7.36;100.00
34034;BME280;63481;52.588;22.472;2024-02-28T22:54:04;100792.70;;;7.23;100.00
34034;BME280;63481;52.588;22.472;2024-02-28T22:59:06;100802.75;;;7.20;100.00
34034;BME280;63481;52.588;22.472;2024-02-28T23:04:08;100803.23;;;7.15;100.00
34034;BME280;63481;52.588;22.472;2024-02-28T23:09:09;100797.88;;;7.08;100.00
34034;BME280;63481;52.588;22.472;2024-02-28T23:14:12;100798.59;;;7.03;100.00
34034;BME280;63481;52.588;22.472;2024-02-28T23:19:14;100806.55;;;7.00;100.00
34034;BME280;63481;52.588;22.472;2024-02-28T23:24:16;100810.38;;;6.94;100.00
34034;BME280;63481;52.588;22.472;2024-02-28T23:29:17;100817.10;;;6.93;100.00
34034;BME280;63481;52.588;22.472;2024-02-28T23:34:19;100818.01;;;6.89;100.00
34034;BME280;63481;52.588;22.472;2024-02-28T23:39:21;100822.43;;;6.85;100.00
34034;BME280;63481;52.588;22.472;2024-02-28T23:44:23;100822.47;;;6.80;100.00
34034;BME280;63481;52.588;22.472;2024-02-28T23:49:25;100828.60;;;6.80;100.00
34034;BME280;63481;52.588;22.472;2024-02-28T23:54:27;100831.98;;;6.76;100.00
34034;BME280;63481;52.588;22.472;2024-02-28T23:59:29;100835.92;;;6.73;100.00
